sensor_id;sensor_type;location;lat;lon;timestamp;temperature;humidity
7472;DHT22;3777;48.722;8.110;2024-02-23T00:00:49;8.60;99.90
7472;DHT22;3777;48.722;8.110;2024-02-23T00:03:16;8.60;99.90
7472;DHT22;3777;48.722;8.110;2024-02-23T00:05:43;8.60;99.90
7472;DHT22;3777;48.722;8.110;2024-02-23T00:08:09;8.60;99.90
7472;DHT22;3777;48.722;8.110;2024-02-23T00:10:36;8.60;99.90
7472;DHT22;3777;48.722;8.110;2024-02-23T00:13:03;8.50;99.90
7472;DHT22;3777;48.722;8.110;2024-02-23T00:15:31;8.40;99.90
7472;DHT22;3777;48.722;8.110;2024-02-23T00:17:58;8.30;99.90
7472;DHT22;3777;48.722;8.110;2024-02-23T00:20:25;8.20;99.90
7472;DHT22;3777;48.722;8.110;2024-02-23T00:22:52;8.10;99.90
7472;DHT22;3777;48.722;8.110;2024-02-23T00:25:19;8.10;99.90
7472;DHT22;3777;48.722;8.110;2024-02-23T00:27:46;8.20;99.90
7472;DHT22;3777;48.722;8.110;2024-02-23T00:30:14;8.20;99.90
7472;DHT22;3777;48.722;8.110;2024-02-23T00:32:42;8.20;99.90
7472;DHT22;3777;48.722;8.110;2024-02-23T00:35:08;8.30;99.90
7472;DHT22;3777;48.722;8.110;2024-02-23T00:37:35;8.20;99.90
7472;DHT22;3777;48.722;8.110;2024-02-23T00:40:03;8.30;99.90
7472;DHT22;3777;48.722;8.110;2024-02-23T00:42:30;8.30;99.90
7472;DHT22;3777;48.722;8.110;2024-02-23T00:44:57;8.40;99.90
7472;DHT22;3777;48.722;8.110;2024-02-23T00:47:24;8.40;99.90
7472;DHT22;3777;48.722;8.110;2024-02-23T00:49:52;8.50;99.90
7472;DHT22;3777;48.722;8.110;2024-02-23T00:52:19;8.40;99.90
7472;DHT22;3777;48.722;8.110;2024-02-23T00:54:46;8.20;99.90
7472;DHT22;3777;48.722;8.110;2024-02-23T00:57:13;8.10;99.90
7472;DHT22;3777;48.722;8.110;2024-02-23T00:59:40;8.20;99.90
7472;DHT22;3777;48.722;8.110;2024-02-23T01:02:06;8.30;99.90
7472;DHT22;3777;48.722;8.110;2024-02-23T01:04:33;8.30;99.90
7472;DHT22;3777;48.722;8.110;2024-02-23T01:07:01;8.40;99.90
7472;DHT22;3777;48.722;8.110;2024-02-23T01:09:28;8.40;99.90
7472;DHT22;3777;48.722;8.110;2024-02-23T01:11:55;8.50;99.90
7472;DHT22;3777;48.722;8.110;2024-02-23T01:14:22;8.50;99.90
7472;DHT22;3777;48.722;8.110;2024-02-23T01:16:48;8.60;99.90
7472;DHT22;3777;48.722;8.110;2024-02-23T01:19:15;8.50;99.90
7472;DHT22;3777;48.722;8.110;2024-02-23T01:21:42;8.50;99.90
7472;DHT22;3777;48.722;8.110;2024-02-23T01:24:10;8.50;99.90
7472;DHT22;3777;48.722;8.110;2024-02-23T01:26:37;8.40;99.90
7472;DHT22;3777;48.722;8.110;2024-02-23T01:29:04;8.40;99.90
7472;DHT22;3777;48.722;8.110;2024-02-23T01:31:31;8.30;99.90
7472;DHT22;3777;48.722;8.110;2024-02-23T01:34:00;8.20;99.90
7472;DHT22;3777;48.722;8.110;2024-02-23T01:36:27;8.20;99.90
7472;DHT22;3777;48.722;8.110;2024-02-23T01:38:54;8.10;99.90
7472;DHT22;3777;48.722;8.110;2024-02-23T01:41:22;8.00;99.90
7472;DHT22;3777;48.722;8.110;2024-02-23T01:43:49;8.00;99.90
7472;DHT22;3777;48.722;8.110;2024-02-23T01:46:17;7.90;99.90
7472;DHT22;3777;48.722;8.110;2024-02-23T01:48:44;7.80;99.90
7472;DHT22;3777;48.722;8.110;2024-02-23T01:51:12;7.80;99.90
7472;DHT22;3777;48.722;8.110;2024-02-23T01:53:39;8.00;99.90
7472;DHT22;3777;48.722;8.110;2024-02-23T01:56:06;8.00;99.90
7472;DHT22;3777;48.722;8.110;2024-02-23T01:58:35;8.00;99.90
7472;DHT22;3777;48.722;8.110;2024-02-23T02:01:02;8.00;99.90
7472;DHT22;3777;48.722;8.110;2024-02-23T02:03:29;8.10;99.90
7472;DHT22;3777;48.722;8.110;2024-02-23T02:05:57;8.10;99.90
7472;DHT22;3777;48.722;8.110;2024-02-23T02:08:24;8.20;99.90
7472;DHT22;3777;48.722;8.110;2024-02-23T02:10:51;8.10;99.90
7472;DHT22;3777;48.722;8.110;2024-02-23T02:13:18;8.10;99.90
7472;DHT22;3777;48.722;8.110;2024-02-23T02:15:46;8.10;99.90
7472;DHT22;3777;48.722;8.110;2024-02-23T02:18:13;8.20;99.90
7472;DHT22;3777;48.722;8.110;2024-02-23T02:20:48;8.20;99.90
7472;DHT22;3777;48.722;8.110;2024-02-23T02:23:17;8.30;99.90
7472;DHT22;3777;48.722;8.110;2024-02-23T02:25:43;8.30;99.90
7472;DHT22;3777;48.722;8.110;2024-02-23T02:28:10;8.20;99.90
7472;DHT22;3777;48.722;8.110;2024-02-23T02:30:37;8.30;99.90
7472;DHT22;3777;48.722;8.110;2024-02-23T02:33:06;8.30;99.90
7472;DHT22;3777;48.722;8.110;2024-02-23T02:35:33;8.30;99.90
7472;DHT22;3777;48.722;8.110;2024-02-23T02:37:59;8.20;99.90
7472;DHT22;3777;48.722;8.110;2024-02-23T02:40:26;8.20;99.90
7472;DHT22;3777;48.722;8.110;2024-02-23T02:42:53;8.20;99.90
7472;DHT22;3777;48.722;8.110;2024-02-23T02:45:20;8.20;99.90
7472;DHT22;3777;48.722;8.110;2024-02-23T02:47:47;8.10;99.90
7472;DHT22;3777;48.722;8.110;2024-02-23T02:50:15;8.10;99.90
7472;DHT22;3777;48.722;8.110;2024-02-23T02:52:42;8.10;99.90
7472;DHT22;3777;48.722;8.110;2024-02-23T02:55:09;8.00;99.90
7472;DHT22;3777;48.722;8.110;2024-02-23T02:57:36;8.00;99.90
7472;DHT22;3777;48.722;8.110;2024-02-23T03:00:03;8.00;99.90
7472;DHT22;3777;48.722;8.110;2024-02-23T03:02:30;8.00;99.90
7472;DHT22;3777;48.722;8.110;2024-02-23T03:04:57;8.00;99.90
7472;DHT22;3777;48.722;8.110;2024-02-23T03:07:25;8.10;99.90
7472;DHT22;3777;48.722;8.110;2024-02-23T03:09:52;8.10;99.90
7472;DHT22;3777;48.722;8.110;2024-02-23T03:12:19;8.00;99.90
7472;DHT22;3777;48.722;8.110;2024-02-23T03:14:47;7.90;99.90
7472;DHT22;3777;48.722;8.110;2024-02-23T03:17:13;7.90;99.90
7472;DHT22;3777;48.722;8.110;2024-02-23T03:19:40;7.80;99.90
7472;DHT22;3777;48.722;8.110;2024-02-23T03:22:07;7.70;99.90
7472;DHT22;3777;48.722;8.110;2024-02-23T03:24:36;7.60;99.90
7472;DHT22;3777;48.722;8.110;2024-02-23T03:27:03;7.60;99.90
7472;DHT22;3777;48.722;8.110;2024-02-23T03:29:30;7.60;99.90
7472;DHT22;3777;48.722;8.110;2024-02-23T03:31:57;7.50;99.90
7472;DHT22;3777;48.722;8.110;2024-02-23T03:34:24;7.50;99.90
7472;DHT22;3777;48.722;8.110;2024-02-23T03:36:51;7.50;99.90
7472;DHT22;3777;48.722;8.110;2024-02-23T03:39:18;7.60;99.90
7472;DHT22;3777;48.722;8.110;2024-02-23T03:41:46;7.60;99.90
7472;DHT22;3777;48.722;8.110;2024-02-23T03:44:13;7.70;99.90
7472;DHT22;3777;48.722;8.110;2024-02-23T03:46:40;7.70;99.90
7472;DHT22;3777;48.722;8.110;2024-02-23T03:49:06;7.70;99.90
7472;DHT22;3777;48.722;8.110;2024-02-23T03:51:33;7.70;99.90
7472;DHT22;3777;48.722;8.110;2024-02-23T03:54:02;7.70;99.90
7472;DHT22;3777;48.722;8.110;2024-02-23T03:56:29;7.60;99.90
7472;DHT22;3777;48.722;8.110;2024-02-23T03:58:57;7.50;99.90
7472;DHT22;3777;48.722;8.110;2024-02-23T04:01:24;7.60;99.90
7472;DHT22;3777;48.722;8.110;2024-02-23T04:03:51;7.60;99.90
7472;DHT22;3777;48.722;8.110;2024-02-23T04:06:18;7.60;99.90
7472;DHT22;3777;48.722;8.110;2024-02-23T04:08:45;7.60;99.90
7472;DHT22;3777;48.722;8.110;2024-02-23T04:11:13;7.60;99.90
7472;DHT22;3777;48.722;8.110;2024-02-23T04:13:40;7.60;99.90
7472;DHT22;3777;48.722;8.110;2024-02-23T04:16:08;7.70;99.90
7472;DHT22;3777;48.722;8.110;2024-02-23T04:18:34;7.70;99.90
7472;DHT22;3777;48.722;8.110;2024-02-23T04:21:01;7.70;99.90
7472;DHT22;3777;48.722;8.110;2024-02-23T04:23:28;7.60;99.90
7472;DHT22;3777;48.722;8.110;2024-02-23T04:25:55;7.60;99.90
7472;DHT22;3777;48.722;8.110;2024-02-23T04:28:22;7.70;99.90
7472;DHT22;3777;48.722;8.110;2024-02-23T04:30:48;7.70;99.90
7472;DHT22;3777;48.722;8.110;2024-02-23T04:33:16;7.70;99.90
7472;DHT22;3777;48.722;8.110;2024-02-23T04:35:43;7.70;99.90
7472;DHT22;3777;48.722;8.110;2024-02-23T04:38:11;7.70;99.90
7472;DHT22;3777;48.722;8.110;2024-02-23T04:40:40;7.60;99.90
7472;DHT22;3777;48.722;8.110;2024-02-23T04:43:07;7.60;99.90
7472;DHT22;3777;48.722;8.110;2024-02-23T04:45:33;7.40;99.90
7472;DHT22;3777;48.722;8.110;2024-02-23T04:48:00;7.50;99.90
7472;DHT22;3777;48.722;8.110;2024-02-23T04:50:29;7.50;99.90
7472;DHT22;3777;48.722;8.110;2024-02-23T04:52:56;7.50;99.90
7472;DHT22;3777;48.722;8.110;2024-02-23T04:55:22;7.60;99.90
7472;DHT22;3777;48.722;8.110;2024-02-23T04:57:49;7.60;99.90
7472;DHT22;3777;48.722;8.110;2024-02-23T05:00:16;7.50;99.90
7472;DHT22;3777;48.722;8.110;2024-02-23T05:02:45;7.50;99.90
7472;DHT22;3777;48.722;8.110;2024-02-23T05:05:12;7.40;99.90
7472;DHT22;3777;48.722;8.110;2024-02-23T05:07:40;7.40;99.90
7472;DHT22;3777;48.722;8.110;2024-02-23T05:10:07;7.40;99.90
7472;DHT22;3777;48.722;8.110;2024-02-23T05:12:34;7.30;99.90
7472;DHT22;3777;48.722;8.110;2024-02-23T05:15:01;7.30;99.90
7472;DHT22;3777;48.722;8.110;2024-02-23T05:17:28;7.30;99.90
7472;DHT22;3777;48.722;8.110;2024-02-23T05:19:55;7.40;99.90
7472;DHT22;3777;48.722;8.110;2024-02-23T05:22:22;7.40;99.90
7472;DHT22;3777;48.722;8.110;2024-02-23T05:24:50;7.40;99.90
7472;DHT22;3777;48.722;8.110;2024-02-23T05:27:17;7.40;99.90
7472;DHT22;3777;48.722;8.110;2024-02-23T05:29:44;7.40;99.90
7472;DHT22;3777;48.722;8.110;2024-02-23T05:32:10;7.40;99.90
7472;DHT22;3777;48.722;8.110;2024-02-23T05:34:37;7.40;99.90
7472;DHT22;3777;48.722;8.110;2024-02-23T05:37:04;7.40;99.90
7472;DHT22;3777;48.722;8.110;2024-02-23T05:39:32;7.40;99.90
7472;DHT22;3777;48.722;8.110;2024-02-23T05:42:00;7.30;99.90
7472;DHT22;3777;48.722;8.110;2024-02-23T05:44:27;7.40;99.90
7472;DHT22;3777;48.722;8.110;2024-02-23T05:46:54;7.60;99.90
7472;DHT22;3777;48.722;8.110;2024-02-23T05:49:20;7.60;99.90
7472;DHT22;3777;48.722;8.110;2024-02-23T05:51:47;7.60;99.90
7472;DHT22;3777;48.722;8.110;2024-02-23T05:54:14;7.60;99.90
7472;DHT22;3777;48.722;8.110;2024-02-23T05:56:41;7.60;99.90
7472;DHT22;3777;48.722;8.110;2024-02-23T05:59:09;7.60;99.90
7472;DHT22;3777;48.722;8.110;2024-02-23T06:01:36;7.40;99.90
7472;DHT22;3777;48.722;8.110;2024-02-23T06:04:03;7.30;99.90
7472;DHT22;3777;48.722;8.110;2024-02-23T06:06:30;7.40;99.90
7472;DHT22;3777;48.722;8.110;2024-02-23T06:08:57;7.40;99.90
7472;DHT22;3777;48.722;8.110;2024-02-23T06:11:25;7.20;99.90
7472;DHT22;3777;48.722;8.110;2024-02-23T06:13:52;7.10;99.90
7472;DHT22;3777;48.722;8.110;2024-02-23T06:16:20;7.00;99.90
7472;DHT22;3777;48.722;8.110;2024-02-23T06:18:47;6.90;99.90
7472;DHT22;3777;48.722;8.110;2024-02-23T06:21:15;6.80;99.90
7472;DHT22;3777;48.722;8.110;2024-02-23T06:23:43;6.80;99.90
7472;DHT22;3777;48.722;8.110;2024-02-23T06:26:10;6.70;99.90
7472;DHT22;3777;48.722;8.110;2024-02-23T06:28:38;6.70;99.90
7472;DHT22;3777;48.722;8.110;2024-02-23T06:31:07;6.60;99.90
7472;DHT22;3777;48.722;8.110;2024-02-23T06:33:36;6.60;99.90
7472;DHT22;3777;48.722;8.110;2024-02-23T06:36:03;6.50;99.90
7472;DHT22;3777;48.722;8.110;2024-02-23T06:38:30;6.50;99.90
7472;DHT22;3777;48.722;8.110;2024-02-23T06:40:57;6.60;99.90
7472;DHT22;3777;48.722;8.110;2024-02-23T06:43:23;6.50;99.90
7472;DHT22;3777;48.722;8.110;2024-02-23T06:45:50;6.50;99.90
7472;DHT22;3777;48.722;8.110;2024-02-23T06:48:17;6.50;99.90
7472;DHT22;3777;48.722;8.110;2024-02-23T06:50:46;6.50;99.90
7472;DHT22;3777;48.722;8.110;2024-02-23T06:53:12;6.40;99.90
7472;DHT22;3777;48.722;8.110;2024-02-23T06:55:39;6.40;99.90
7472;DHT22;3777;48.722;8.110;2024-02-23T06:58:07;6.40;99.90
7472;DHT22;3777;48.722;8.110;2024-02-23T07:00:35;6.30;99.90
7472;DHT22;3777;48.722;8.110;2024-02-23T07:03:02;6.40;99.90
7472;DHT22;3777;48.722;8.110;2024-02-23T07:05:29;6.40;99.90
7472;DHT22;3777;48.722;8.110;2024-02-23T07:07:57;6.40;99.90
7472;DHT22;3777;48.722;8.110;2024-02-23T07:10:26;6.40;99.90
7472;DHT22;3777;48.722;8.110;2024-02-23T07:12:53;6.40;99.90
7472;DHT22;3777;48.722;8.110;2024-02-23T07:15:21;6.40;99.90
7472;DHT22;3777;48.722;8.110;2024-02-23T07:17:48;6.40;99.90
7472;DHT22;3777;48.722;8.110;2024-02-23T07:20:15;6.40;99.90
7472;DHT22;3777;48.722;8.110;2024-02-23T07:22:43;6.30;99.90
7472;DHT22;3777;48.722;8.110;2024-02-23T07:25:15;6.30;99.90
7472;DHT22;3777;48.722;8.110;2024-02-23T07:27:43;6.40;99.90
7472;DHT22;3777;48.722;8.110;2024-02-23T07:30:10;6.40;99.90
7472;DHT22;3777;48.722;8.110;2024-02-23T07:32:37;6.60;99.90
7472;DHT22;3777;48.722;8.110;2024-02-23T07:35:04;6.60;99.90
7472;DHT22;3777;48.722;8.110;2024-02-23T07:37:31;6.70;99.90
7472;DHT22;3777;48.722;8.110;2024-02-23T07:39:58;6.90;99.90
7472;DHT22;3777;48.722;8.110;2024-02-23T07:42:27;7.00;99.90
7472;DHT22;3777;48.722;8.110;2024-02-23T07:44:54;7.10;99.90
7472;DHT22;3777;48.722;8.110;2024-02-23T07:47:21;7.30;99.90
7472;DHT22;3777;48.722;8.110;2024-02-23T07:49:48;7.50;99.90
7472;DHT22;3777;48.722;8.110;2024-02-23T07:52:16;7.70;99.90
7472;DHT22;3777;48.722;8.110;2024-02-23T07:54:43;7.90;99.90
7472;DHT22;3777;48.722;8.110;2024-02-23T07:57:10;8.00;99.90
7472;DHT22;3777;48.722;8.110;2024-02-23T07:59:38;8.10;99.90
7472;DHT22;3777;48.722;8.110;2024-02-23T08:02:05;8.20;99.90
7472;DHT22;3777;48.722;8.110;2024-02-23T08:04:32;8.40;99.90
7472;DHT22;3777;48.722;8.110;2024-02-23T08:06:59;8.40;99.90
7472;DHT22;3777;48.722;8.110;2024-02-23T08:09:26;8.50;99.90
7472;DHT22;3777;48.722;8.110;2024-02-23T08:11:52;8.60;99.90
7472;DHT22;3777;48.722;8.110;2024-02-23T08:14:19;8.70;99.90
7472;DHT22;3777;48.722;8.110;2024-02-23T08:16:47;8.90;99.90
7472;DHT22;3777;48.722;8.110;2024-02-23T08:19:15;9.00;99.90
7472;DHT22;3777;48.722;8.110;2024-02-23T08:21:42;9.10;99.90
7472;DHT22;3777;48.722;8.110;2024-02-23T08:24:09;9.10;99.90
7472;DHT22;3777;48.722;8.110;2024-02-23T08:26:36;9.20;99.90
7472;DHT22;3777;48.722;8.110;2024-02-23T08:29:03;9.60;99.90
7472;DHT22;3777;48.722;8.110;2024-02-23T08:31:30;9.90;99.90
7472;DHT22;3777;48.722;8.110;2024-02-23T08:33:59;10.20;99.90
7472;DHT22;3777;48.722;8.110;2024-02-23T08:36:25;10.20;99.90
7472;DHT22;3777;48.722;8.110;2024-02-23T08:38:52;10.10;99.90
7472;DHT22;3777;48.722;8.110;2024-02-23T08:41:19;10.40;99.90
7472;DHT22;3777;48.722;8.110;2024-02-23T08:43:46;10.70;99.90
7472;DHT22;3777;48.722;8.110;2024-02-23T08:46:13;10.90;99.90
7472;DHT22;3777;48.722;8.110;2024-02-23T08:48:39;11.00;99.90
7472;DHT22;3777;48.722;8.110;2024-02-23T08:51:07;11.00;99.90
7472;DHT22;3777;48.722;8.110;2024-02-23T08:53:35;11.00;99.90
7472;DHT22;3777;48.722;8.110;2024-02-23T08:56:02;10.90;99.90
7472;DHT22;3777;48.722;8.110;2024-02-23T08:58:30;11.10;99.90
7472;DHT22;3777;48.722;8.110;2024-02-23T09:00:56;11.30;99.90
7472;DHT22;3777;48.722;8.110;2024-02-23T09:03:23;11.30;99.90
7472;DHT22;3777;48.722;8.110;2024-02-23T09:05:50;11.20;99.90
7472;DHT22;3777;48.722;8.110;2024-02-23T09:08:18;11.20;99.90
7472;DHT22;3777;48.722;8.110;2024-02-23T09:10:45;11.40;99.90
7472;DHT22;3777;48.722;8.110;2024-02-23T09:13:11;11.50;99.90
7472;DHT22;3777;48.722;8.110;2024-02-23T09:15:39;11.60;99.90
7472;DHT22;3777;48.722;8.110;2024-02-23T09:18:07;11.60;99.90
7472;DHT22;3777;48.722;8.110;2024-02-23T09:20:37;11.50;99.90
7472;DHT22;3777;48.722;8.110;2024-02-23T09:23:04;11.90;99.90
7472;DHT22;3777;48.722;8.110;2024-02-23T09:25:32;12.20;99.90
7472;DHT22;3777;48.722;8.110;2024-02-23T09:27:59;12.50;99.90
7472;DHT22;3777;48.722;8.110;2024-02-23T09:30:25;12.60;99.90
7472;DHT22;3777;48.722;8.110;2024-02-23T09:32:52;12.30;99.90
7472;DHT22;3777;48.722;8.110;2024-02-23T09:35:20;11.90;99.90
7472;DHT22;3777;48.722;8.110;2024-02-23T09:37:46;11.60;99.90
7472;DHT22;3777;48.722;8.110;2024-02-23T09:40:14;11.60;99.90
7472;DHT22;3777;48.722;8.110;2024-02-23T09:42:43;11.40;99.90
7472;DHT22;3777;48.722;8.110;2024-02-23T09:45:14;11.20;99.90
7472;DHT22;3777;48.722;8.110;2024-02-23T09:47:40;11.40;99.90
7472;DHT22;3777;48.722;8.110;2024-02-23T09:50:09;11.60;99.90
7472;DHT22;3777;48.722;8.110;2024-02-23T09:52:36;11.90;99.90
7472;DHT22;3777;48.722;8.110;2024-02-23T09:55:03;12.30;99.90
7472;DHT22;3777;48.722;8.110;2024-02-23T09:57:30;12.70;99.90
7472;DHT22;3777;48.722;8.110;2024-02-23T09:59:58;13.20;99.90
7472;DHT22;3777;48.722;8.110;2024-02-23T10:02:25;13.30;99.90
7472;DHT22;3777;48.722;8.110;2024-02-23T10:04:54;13.20;99.90
7472;DHT22;3777;48.722;8.110;2024-02-23T10:07:23;13.30;99.90
7472;DHT22;3777;48.722;8.110;2024-02-23T10:09:51;13.40;99.90
7472;DHT22;3777;48.722;8.110;2024-02-23T10:12:17;13.60;99.90
7472;DHT22;3777;48.722;8.110;2024-02-23T10:14:44;13.60;99.90
7472;DHT22;3777;48.722;8.110;2024-02-23T10:17:12;13.70;99.90
7472;DHT22;3777;48.722;8.110;2024-02-23T10:19:39;14.00;99.90
7472;DHT22;3777;48.722;8.110;2024-02-23T10:22:06;14.50;99.90
7472;DHT22;3777;48.722;8.110;2024-02-23T10:24:33;14.90;99.90
7472;DHT22;3777;48.722;8.110;2024-02-23T10:27:00;15.00;99.90
7472;DHT22;3777;48.722;8.110;2024-02-23T10:29:27;14.90;99.90
7472;DHT22;3777;48.722;8.110;2024-02-23T10:31:57;14.60;99.90
7472;DHT22;3777;48.722;8.110;2024-02-23T10:34:27;14.90;99.90
7472;DHT22;3777;48.722;8.110;2024-02-23T10:36:55;14.60;99.90
7472;DHT22;3777;48.722;8.110;2024-02-23T10:39:24;14.20;99.90
7472;DHT22;3777;48.722;8.110;2024-02-23T10:41:56;14.00;99.90
7472;DHT22;3777;48.722;8.110;2024-02-23T10:44:24;13.80;99.90
7472;DHT22;3777;48.722;8.110;2024-02-23T10:46:54;13.60;99.90
7472;DHT22;3777;48.722;8.110;2024-02-23T10:49:24;13.40;99.90
7472;DHT22;3777;48.722;8.110;2024-02-23T10:51:53;13.40;99.90
7472;DHT22;3777;48.722;8.110;2024-02-23T10:54:20;14.50;99.90
7472;DHT22;3777;48.722;8.110;2024-02-23T10:56:50;15.50;99.90
7472;DHT22;3777;48.722;8.110;2024-02-23T10:59:17;16.70;99.90
7472;DHT22;3777;48.722;8.110;2024-02-23T11:01:47;17.60;99.90
7472;DHT22;3777;48.722;8.110;2024-02-23T11:04:15;18.30;99.90
7472;DHT22;3777;48.722;8.110;2024-02-23T11:06:49;18.70;99.90
7472;DHT22;3777;48.722;8.110;2024-02-23T11:09:17;19.10;98.90
7472;DHT22;3777;48.722;8.110;2024-02-23T11:11:57;18.50;95.20
7472;DHT22;3777;48.722;8.110;2024-02-23T11:14:30;17.90;97.90
7472;DHT22;3777;48.722;8.110;2024-02-23T11:16:57;16.70;95.90
7472;DHT22;3777;48.722;8.110;2024-02-23T11:19:32;16.20;98.20
7472;DHT22;3777;48.722;8.110;2024-02-23T11:22:02;15.60;99.40
7472;DHT22;3777;48.722;8.110;2024-02-23T11:24:29;15.10;99.50
7472;DHT22;3777;48.722;8.110;2024-02-23T11:26:57;14.90;99.90
7472;DHT22;3777;48.722;8.110;2024-02-23T11:29:26;14.40;99.90
7472;DHT22;3777;48.722;8.110;2024-02-23T11:31:55;14.50;99.90
7472;DHT22;3777;48.722;8.110;2024-02-23T11:34:27;14.40;99.90
7472;DHT22;3777;48.722;8.110;2024-02-23T11:36:54;14.30;99.90
7472;DHT22;3777;48.722;8.110;2024-02-23T11:39:23;14.40;99.90
7472;DHT22;3777;48.722;8.110;2024-02-23T11:41:50;14.10;99.90
7472;DHT22;3777;48.722;8.110;2024-02-23T11:44:17;14.00;99.90
7472;DHT22;3777;48.722;8.110;2024-02-23T11:46:44;14.00;99.90
7472;DHT22;3777;48.722;8.110;2024-02-23T11:49:12;14.10;99.90
7472;DHT22;3777;48.722;8.110;2024-02-23T11:51:39;13.90;99.90
7472;DHT22;3777;48.722;8.110;2024-02-23T11:54:06;13.70;99.90
7472;DHT22;3777;48.722;8.110;2024-02-23T11:56:34;13.60;99.90
7472;DHT22;3777;48.722;8.110;2024-02-23T11:59:01;13.40;99.90
7472;DHT22;3777;48.722;8.110;2024-02-23T12:01:29;13.30;99.90
7472;DHT22;3777;48.722;8.110;2024-02-23T12:03:57;13.10;99.90
7472;DHT22;3777;48.722;8.110;2024-02-23T12:06:24;13.10;99.90
7472;DHT22;3777;48.722;8.110;2024-02-23T12:08:54;13.30;99.90
7472;DHT22;3777;48.722;8.110;2024-02-23T12:11:21;13.50;99.90
7472;DHT22;3777;48.722;8.110;2024-02-23T12:13:50;13.70;99.90
7472;DHT22;3777;48.722;8.110;2024-02-23T12:16:17;13.50;99.90
7472;DHT22;3777;48.722;8.110;2024-02-23T12:18:44;13.60;99.90
7472;DHT22;3777;48.722;8.110;2024-02-23T12:21:11;13.50;99.90
7472;DHT22;3777;48.722;8.110;2024-02-23T12:23:40;13.60;99.90
7472;DHT22;3777;48.722;8.110;2024-02-23T12:26:06;13.50;99.90
7472;DHT22;3777;48.722;8.110;2024-02-23T12:28:34;13.40;99.90
7472;DHT22;3777;48.722;8.110;2024-02-23T12:31:02;13.20;99.90
7472;DHT22;3777;48.722;8.110;2024-02-23T12:33:32;13.30;99.90
7472;DHT22;3777;48.722;8.110;2024-02-23T12:36:00;13.10;99.90
7472;DHT22;3777;48.722;8.110;2024-02-23T12:38:27;12.70;99.90
7472;DHT22;3777;48.722;8.110;2024-02-23T12:40:54;12.90;99.90
7472;DHT22;3777;48.722;8.110;2024-02-23T12:43:20;13.00;99.90
7472;DHT22;3777;48.722;8.110;2024-02-23T12:45:50;13.20;99.90
7472;DHT22;3777;48.722;8.110;2024-02-23T12:48:18;13.40;99.90
7472;DHT22;3777;48.722;8.110;2024-02-23T12:50:45;13.60;99.90
7472;DHT22;3777;48.722;8.110;2024-02-23T12:53:30;13.40;99.90
7472;DHT22;3777;48.722;8.110;2024-02-23T12:55:58;13.30;99.90
7472;DHT22;3777;48.722;8.110;2024-02-23T12:58:25;13.20;99.90
7472;DHT22;3777;48.722;8.110;2024-02-23T13:00:51;13.50;99.90
7472;DHT22;3777;48.722;8.110;2024-02-23T13:03:20;13.80;99.90
7472;DHT22;3777;48.722;8.110;2024-02-23T13:05:47;14.00;99.90
7472;DHT22;3777;48.722;8.110;2024-02-23T13:08:14;13.80;99.90
7472;DHT22;3777;48.722;8.110;2024-02-23T13:10:40;13.40;99.90
7472;DHT22;3777;48.722;8.110;2024-02-23T13:13:07;13.10;99.90
7472;DHT22;3777;48.722;8.110;2024-02-23T13:15:34;13.10;99.90
7472;DHT22;3777;48.722;8.110;2024-02-23T13:18:02;13.00;99.90
7472;DHT22;3777;48.722;8.110;2024-02-23T13:20:30;12.90;99.90
7472;DHT22;3777;48.722;8.110;2024-02-23T13:22:57;12.40;99.90
7472;DHT22;3777;48.722;8.110;2024-02-23T13:25:24;12.00;99.90
7472;DHT22;3777;48.722;8.110;2024-02-23T13:27:51;11.80;99.90
7472;DHT22;3777;48.722;8.110;2024-02-23T13:30:18;11.70;99.90
7472;DHT22;3777;48.722;8.110;2024-02-23T13:32:45;11.50;99.90
7472;DHT22;3777;48.722;8.110;2024-02-23T13:35:12;11.50;99.90
7472;DHT22;3777;48.722;8.110;2024-02-23T13:37:41;11.40;99.90
7472;DHT22;3777;48.722;8.110;2024-02-23T13:40:09;11.50;99.90
7472;DHT22;3777;48.722;8.110;2024-02-23T13:42:36;11.60;99.90
7472;DHT22;3777;48.722;8.110;2024-02-23T13:45:05;11.70;99.90
7472;DHT22;3777;48.722;8.110;2024-02-23T13:47:32;11.50;99.90
7472;DHT22;3777;48.722;8.110;2024-02-23T13:49:59;11.50;99.90
7472;DHT22;3777;48.722;8.110;2024-02-23T13:52:27;11.60;99.90
7472;DHT22;3777;48.722;8.110;2024-02-23T13:54:55;11.70;99.90
7472;DHT22;3777;48.722;8.110;2024-02-23T13:57:22;11.60;99.90
7472;DHT22;3777;48.722;8.110;2024-02-23T13:59:49;11.50;99.90
7472;DHT22;3777;48.722;8.110;2024-02-23T14:02:16;11.40;99.90
7472;DHT22;3777;48.722;8.110;2024-02-23T14:04:50;11.10;99.90
7472;DHT22;3777;48.722;8.110;2024-02-23T14:07:17;11.10;99.90
7472;DHT22;3777;48.722;8.110;2024-02-23T14:09:44;11.00;99.90
7472;DHT22;3777;48.722;8.110;2024-02-23T14:12:13;11.00;99.90
7472;DHT22;3777;48.722;8.110;2024-02-23T14:14:40;11.00;99.90
7472;DHT22;3777;48.722;8.110;2024-02-23T14:17:07;11.30;99.90
7472;DHT22;3777;48.722;8.110;2024-02-23T14:19:33;11.30;99.90
7472;DHT22;3777;48.722;8.110;2024-02-23T14:22:00;11.30;99.90
7472;DHT22;3777;48.722;8.110;2024-02-23T14:24:27;11.50;99.90
7472;DHT22;3777;48.722;8.110;2024-02-23T14:26:54;11.60;99.90
7472;DHT22;3777;48.722;8.110;2024-02-23T14:29:22;11.50;99.90
7472;DHT22;3777;48.722;8.110;2024-02-23T14:31:49;11.50;99.90
7472;DHT22;3777;48.722;8.110;2024-02-23T14:34:16;11.50;99.90
7472;DHT22;3777;48.722;8.110;2024-02-23T14:36:42;11.50;99.90
7472;DHT22;3777;48.722;8.110;2024-02-23T14:39:09;11.50;99.90
7472;DHT22;3777;48.722;8.110;2024-02-23T14:41:38;11.60;99.90
7472;DHT22;3777;48.722;8.110;2024-02-23T14:44:05;11.80;99.90
7472;DHT22;3777;48.722;8.110;2024-02-23T14:46:33;12.00;99.90
7472;DHT22;3777;48.722;8.110;2024-02-23T14:49:00;12.10;99.90
7472;DHT22;3777;48.722;8.110;2024-02-23T14:51:27;12.40;99.90
7472;DHT22;3777;48.722;8.110;2024-02-23T14:53:54;12.60;99.90
7472;DHT22;3777;48.722;8.110;2024-02-23T14:56:21;12.60;99.90
7472;DHT22;3777;48.722;8.110;2024-02-23T14:58:48;12.70;99.90
7472;DHT22;3777;48.722;8.110;2024-02-23T15:01:15;12.80;99.90
7472;DHT22;3777;48.722;8.110;2024-02-23T15:03:43;12.90;99.90
7472;DHT22;3777;48.722;8.110;2024-02-23T15:06:10;12.60;99.90
7472;DHT22;3777;48.722;8.110;2024-02-23T15:08:37;12.60;99.90
7472;DHT22;3777;48.722;8.110;2024-02-23T15:11:03;12.60;99.90
7472;DHT22;3777;48.722;8.110;2024-02-23T15:13:31;12.40;99.90
7472;DHT22;3777;48.722;8.110;2024-02-23T15:15:58;12.40;99.90
7472;DHT22;3777;48.722;8.110;2024-02-23T15:18:26;12.30;99.90
7472;DHT22;3777;48.722;8.110;2024-02-23T15:20:54;12.20;99.90
7472;DHT22;3777;48.722;8.110;2024-02-23T15:23:21;12.10;99.90
7472;DHT22;3777;48.722;8.110;2024-02-23T15:25:49;12.00;99.90
7472;DHT22;3777;48.722;8.110;2024-02-23T15:28:16;12.00;99.90
7472;DHT22;3777;48.722;8.110;2024-02-23T15:30:48;11.80;99.90
7472;DHT22;3777;48.722;8.110;2024-02-23T15:33:15;11.50;99.90
7472;DHT22;3777;48.722;8.110;2024-02-23T15:35:42;11.30;99.90
7472;DHT22;3777;48.722;8.110;2024-02-23T15:38:10;11.20;99.90
7472;DHT22;3777;48.722;8.110;2024-02-23T15:40:37;11.20;99.90
7472;DHT22;3777;48.722;8.110;2024-02-23T15:43:04;11.20;99.90
7472;DHT22;3777;48.722;8.110;2024-02-23T15:45:31;11.20;99.90
7472;DHT22;3777;48.722;8.110;2024-02-23T15:47:58;11.20;99.90
7472;DHT22;3777;48.722;8.110;2024-02-23T15:50:25;11.30;99.90
7472;DHT22;3777;48.722;8.110;2024-02-23T15:52:53;11.30;99.90
7472;DHT22;3777;48.722;8.110;2024-02-23T15:55:22;11.30;99.90
7472;DHT22;3777;48.722;8.110;2024-02-23T15:57:49;11.30;99.90
7472;DHT22;3777;48.722;8.110;2024-02-23T16:00:16;11.30;99.90
7472;DHT22;3777;48.722;8.110;2024-02-23T16:02:44;11.30;99.90
7472;DHT22;3777;48.722;8.110;2024-02-23T16:05:11;11.20;99.90
7472;DHT22;3777;48.722;8.110;2024-02-23T16:07:37;11.20;99.90
7472;DHT22;3777;48.722;8.110;2024-02-23T16:10:05;11.10;99.90